Hovedside
METAR-TAF:

METAR-TAF

Lufthavner :

Bergen, Norge

Bergen lufthavn

breddegrad: 60-17N, lengdegrad: 005-14E, høyde over havet: 5 m

Gjeldene værobservasjon

Denne rapporten ble laget for 28 minutter siden, klokken 18:20 UTC
Vind 5 kt fra Sørøst
Temperatur 13°C
Luftfuktighet 77%
Trykk 1021 hPa
Sikt 10 km eller mer
Brutte skyer i en høyde av 4000 ft

METAR: ENBR 221820Z 13005KT 9999 BKN040 13/09 Q1021 NOSIG RMK WIND 1200FT 13016KT

Tid: 20:48 (18:48 UTC)

Varsel

Varsel gyldig fra 22. klokken 18 UTC til 23. klokken 18 UTC
Vind 7 kt fra Sørøst
Sikt 10 km eller mer
Få skyer i en høyde av 3500 ft
Brutte skyer i en høyde av 6000 ft
lett regn

TAF: ENBR 2218/2318 14007KT 9999 -RA FEW035 BKN060

Værobservasjoner og værvarsel for over 4000 flyplasser (METAR- og TAF-rapporter).

Tilgjengelige stasjoner er representert av de røde og gule prikkene på kartet.

Hold musepekeren over prikken for å se navnet på stasjonen.

Klikk så for å se værobservasjoner og -varsler.

For å forandre kartet kan du klikke på den grønne knappen med svart kryss for å zoome inn, på den grønne knappen med strek for å zoome ut, eller på de grønne pilene for å se tilstøtende kart.


METAR-TAF: